sensor_id;sensor_type;location;lat;lon;timestamp;temperature;humidity
23435;DHT22;11890;45.380;11.028;2022-07-06T00:01:59;28.40;77.40
23435;DHT22;11890;45.380;11.028;2022-07-06T00:04:27;28.40;77.70
23435;DHT22;11890;45.380;11.028;2022-07-06T00:06:55;28.30;78.20
23435;DHT22;11890;45.380;11.028;2022-07-06T00:09:22;28.30;78.40
23435;DHT22;11890;45.380;11.028;2022-07-06T00:11:50;28.20;78.50
23435;DHT22;11890;45.380;11.028;2022-07-06T00:14:17;28.10;78.90
23435;DHT22;11890;45.380;11.028;2022-07-06T00:16:44;28.10;79.30
23435;DHT22;11890;45.380;11.028;2022-07-06T00:19:12;28.00;79.40
23435;DHT22;11890;45.380;11.028;2022-07-06T00:21:40;27.90;80.00
23435;DHT22;11890;45.380;11.028;2022-07-06T00:24:07;27.80;80.60
23435;DHT22;11890;45.380;11.028;2022-07-06T00:26:35;27.70;81.20
23435;DHT22;11890;45.380;11.028;2022-07-06T00:29:03;27.70;81.30
23435;DHT22;11890;45.380;11.028;2022-07-06T00:31:30;27.70;81.90
23435;DHT22;11890;45.380;11.028;2022-07-06T00:33:58;27.60;82.70
23435;DHT22;11890;45.380;11.028;2022-07-06T00:36:25;27.60;83.70
23435;DHT22;11890;45.380;11.028;2022-07-06T00:38:53;27.50;84.70
23435;DHT22;11890;45.380;11.028;2022-07-06T00:41:21;27.50;86.90
23435;DHT22;11890;45.380;11.028;2022-07-06T00:43:55;27.40;87.60
23435;DHT22;11890;45.380;11.028;2022-07-06T00:46:33;27.30;88.40
23435;DHT22;11890;45.380;11.028;2022-07-06T00:49:00;27.30;88.50
23435;DHT22;11890;45.380;11.028;2022-07-06T00:51:30;27.30;88.70
23435;DHT22;11890;45.380;11.028;2022-07-06T00:54:00;27.30;88.90
23435;DHT22;11890;45.380;11.028;2022-07-06T00:56:30;27.30;89.10
23435;DHT22;11890;45.380;11.028;2022-07-06T00:59:02;27.40;89.20
23435;DHT22;11890;45.380;11.028;2022-07-06T01:01:29;27.40;89.60
23435;DHT22;11890;45.380;11.028;2022-07-06T01:03:57;27.40;89.10
23435;DHT22;11890;45.380;11.028;2022-07-06T01:06:24;27.50;89.40
23435;DHT22;11890;45.380;11.028;2022-07-06T01:08:53;27.50;89.40
23435;DHT22;11890;45.380;11.028;2022-07-06T01:11:22;27.50;89.20
23435;DHT22;11890;45.380;11.028;2022-07-06T01:13:50;27.50;89.20
23435;DHT22;11890;45.380;11.028;2022-07-06T01:16:18;27.50;88.70
23435;DHT22;11890;45.380;11.028;2022-07-06T01:18:46;27.60;89.10
23435;DHT22;11890;45.380;11.028;2022-07-06T01:21:15;27.60;88.90
23435;DHT22;11890;45.380;11.028;2022-07-06T01:23:44;27.60;89.00
23435;DHT22;11890;45.380;11.028;2022-07-06T01:26:18;27.70;88.90
23435;DHT22;11890;45.380;11.028;2022-07-06T01:28:50;27.60;88.60
23435;DHT22;11890;45.380;11.028;2022-07-06T01:31:23;27.60;88.60
23435;DHT22;11890;45.380;11.028;2022-07-06T01:33:51;27.60;88.80
23435;DHT22;11890;45.380;11.028;2022-07-06T01:36:19;27.60;88.70
23435;DHT22;11890;45.380;11.028;2022-07-06T01:38:54;27.50;89.00
23435;DHT22;11890;45.380;11.028;2022-07-06T01:41:24;27.40;89.10
23435;DHT22;11890;45.380;11.028;2022-07-06T01:43:52;27.30;89.30
23435;DHT22;11890;45.380;11.028;2022-07-06T01:46:20;27.30;89.70
23435;DHT22;11890;45.380;11.028;2022-07-06T01:48:47;27.30;89.30
23435;DHT22;11890;45.380;11.028;2022-07-06T01:51:15;27.20;89.50
23435;DHT22;11890;45.380;11.028;2022-07-06T01:53:45;27.30;89.90
23435;DHT22;11890;45.380;11.028;2022-07-06T01:56:15;27.30;89.30
23435;DHT22;11890;45.380;11.028;2022-07-06T01:58:46;27.30;89.20
23435;DHT22;11890;45.380;11.028;2022-07-06T02:01:16;27.30;88.50
23435;DHT22;11890;45.380;11.028;2022-07-06T02:03:44;27.20;88.20
23435;DHT22;11890;45.380;11.028;2022-07-06T02:06:12;27.20;88.40
23435;DHT22;11890;45.380;11.028;2022-07-06T02:08:41;27.20;88.40
23435;DHT22;11890;45.380;11.028;2022-07-06T02:11:10;27.20;88.60
23435;DHT22;11890;45.380;11.028;2022-07-06T02:13:39;27.10;88.00
23435;DHT22;11890;45.380;11.028;2022-07-06T02:16:10;27.10;88.20
23435;DHT22;11890;45.380;11.028;2022-07-06T02:18:37;27.10;88.20
23435;DHT22;11890;45.380;11.028;2022-07-06T02:21:05;27.00;88.00
23435;DHT22;11890;45.380;11.028;2022-07-06T02:23:32;27.10;88.20
23435;DHT22;11890;45.380;11.028;2022-07-06T02:26:00;27.00;88.20
23435;DHT22;11890;45.380;11.028;2022-07-06T02:28:28;27.00;88.40
23435;DHT22;11890;45.380;11.028;2022-07-06T02:30:56;27.00;88.30
23435;DHT22;11890;45.380;11.028;2022-07-06T02:33:24;27.00;88.60
23435;DHT22;11890;45.380;11.028;2022-07-06T02:35:51;27.00;88.30
23435;DHT22;11890;45.380;11.028;2022-07-06T02:38:19;27.00;88.20
23435;DHT22;11890;45.380;11.028;2022-07-06T02:40:47;27.00;88.20
23435;DHT22;11890;45.380;11.028;2022-07-06T02:43:15;27.00;88.10
23435;DHT22;11890;45.380;11.028;2022-07-06T02:45:43;27.00;88.20
23435;DHT22;11890;45.380;11.028;2022-07-06T02:48:11;27.00;87.90
23435;DHT22;11890;45.380;11.028;2022-07-06T02:50:39;27.00;88.00
23435;DHT22;11890;45.380;11.028;2022-07-06T02:53:07;27.00;88.20
23435;DHT22;11890;45.380;11.028;2022-07-06T02:55:34;27.00;88.70
23435;DHT22;11890;45.380;11.028;2022-07-06T02:58:04;26.90;88.70
23435;DHT22;11890;45.380;11.028;2022-07-06T03:00:31;26.90;88.80
23435;DHT22;11890;45.380;11.028;2022-07-06T03:02:59;27.00;89.40
23435;DHT22;11890;45.380;11.028;2022-07-06T03:05:27;27.00;89.40
23435;DHT22;11890;45.380;11.028;2022-07-06T03:07:54;27.00;89.30
23435;DHT22;11890;45.380;11.028;2022-07-06T03:10:22;26.90;89.40
23435;DHT22;11890;45.380;11.028;2022-07-06T03:12:50;26.90;89.90
23435;DHT22;11890;45.380;11.028;2022-07-06T03:15:17;26.80;89.90
23435;DHT22;11890;45.380;11.028;2022-07-06T03:17:46;26.80;90.00
23435;DHT22;11890;45.380;11.028;2022-07-06T03:20:15;26.80;90.00
23435;DHT22;11890;45.380;11.028;2022-07-06T03:22:43;26.80;90.10
23435;DHT22;11890;45.380;11.028;2022-07-06T03:25:14;26.80;90.10
23435;DHT22;11890;45.380;11.028;2022-07-06T03:27:41;26.80;90.40
23435;DHT22;11890;45.380;11.028;2022-07-06T03:30:11;26.80;90.20
23435;DHT22;11890;45.380;11.028;2022-07-06T03:32:45;26.80;90.30
23435;DHT22;11890;45.380;11.028;2022-07-06T03:35:13;26.80;90.20
23435;DHT22;11890;45.380;11.028;2022-07-06T03:37:42;26.80;90.10
23435;DHT22;11890;45.380;11.028;2022-07-06T03:40:10;26.80;90.30
23435;DHT22;11890;45.380;11.028;2022-07-06T03:42:38;26.70;90.30
23435;DHT22;11890;45.380;11.028;2022-07-06T03:45:09;26.80;90.20
23435;DHT22;11890;45.380;11.028;2022-07-06T03:47:37;26.80;90.50
23435;DHT22;11890;45.380;11.028;2022-07-06T03:50:05;26.70;90.60
23435;DHT22;11890;45.380;11.028;2022-07-06T03:52:34;26.60;90.80
23435;DHT22;11890;45.380;11.028;2022-07-06T03:55:02;26.60;90.80
23435;DHT22;11890;45.380;11.028;2022-07-06T03:57:30;26.60;90.80
23435;DHT22;11890;45.380;11.028;2022-07-06T04:00:03;26.60;90.40
23435;DHT22;11890;45.380;11.028;2022-07-06T04:02:40;26.70;90.70
23435;DHT22;11890;45.380;11.028;2022-07-06T04:05:14;26.70;90.60
23435;DHT22;11890;45.380;11.028;2022-07-06T04:07:42;26.70;90.60
23435;DHT22;11890;45.380;11.028;2022-07-06T04:10:10;26.70;90.50
23435;DHT22;11890;45.380;11.028;2022-07-06T04:12:44;26.80;90.20
23435;DHT22;11890;45.380;11.028;2022-07-06T04:15:14;26.90;90.20
23435;DHT22;11890;45.380;11.028;2022-07-06T04:17:41;27.00;89.80
23435;DHT22;11890;45.380;11.028;2022-07-06T04:20:28;27.10;89.40
23435;DHT22;11890;45.380;11.028;2022-07-06T04:22:57;27.20;89.20
23435;DHT22;11890;45.380;11.028;2022-07-06T04:25:25;27.30;89.40
23435;DHT22;11890;45.380;11.028;2022-07-06T04:27:55;27.40;89.00
23435;DHT22;11890;45.380;11.028;2022-07-06T04:30:23;27.40;88.80
23435;DHT22;11890;45.380;11.028;2022-07-06T04:32:50;27.50;88.80
23435;DHT22;11890;45.380;11.028;2022-07-06T04:35:18;27.60;88.40
23435;DHT22;11890;45.380;11.028;2022-07-06T04:37:47;27.60;88.50
23435;DHT22;11890;45.380;11.028;2022-07-06T04:40:17;27.70;88.20
23435;DHT22;11890;45.380;11.028;2022-07-06T04:42:47;27.70;89.20
23435;DHT22;11890;45.380;11.028;2022-07-06T04:45:15;27.80;88.60
23435;DHT22;11890;45.380;11.028;2022-07-06T04:47:43;27.90;88.00
23435;DHT22;11890;45.380;11.028;2022-07-06T04:50:12;28.00;88.00
23435;DHT22;11890;45.380;11.028;2022-07-06T04:52:41;28.00;88.10
23435;DHT22;11890;45.380;11.028;2022-07-06T04:55:09;28.00;88.00
23435;DHT22;11890;45.380;11.028;2022-07-06T04:57:37;28.10;88.40
23435;DHT22;11890;45.380;11.028;2022-07-06T05:00:06;28.00;88.40
23435;DHT22;11890;45.380;11.028;2022-07-06T05:02:34;28.00;88.30
23435;DHT22;11890;45.380;11.028;2022-07-06T05:05:02;28.00;88.50
23435;DHT22;11890;45.380;11.028;2022-07-06T05:07:30;28.00;88.60
23435;DHT22;11890;45.380;11.028;2022-07-06T05:10:01;28.00;88.10
23435;DHT22;11890;45.380;11.028;2022-07-06T05:12:30;28.00;88.10
23435;DHT22;11890;45.380;11.028;2022-07-06T05:14:58;28.00;87.60
23435;DHT22;11890;45.380;11.028;2022-07-06T05:17:26;27.90;87.30
23435;DHT22;11890;45.380;11.028;2022-07-06T05:19:58;27.90;86.80
23435;DHT22;11890;45.380;11.028;2022-07-06T05:22:26;27.80;86.90
23435;DHT22;11890;45.380;11.028;2022-07-06T05:24:54;27.80;86.10
23435;DHT22;11890;45.380;11.028;2022-07-06T05:27:22;27.70;86.20
23435;DHT22;11890;45.380;11.028;2022-07-06T05:29:49;27.70;85.60
23435;DHT22;11890;45.380;11.028;2022-07-06T05:32:17;27.70;85.00
23435;DHT22;11890;45.380;11.028;2022-07-06T05:34:45;27.70;84.30
23435;DHT22;11890;45.380;11.028;2022-07-06T05:37:13;27.70;84.30
23435;DHT22;11890;45.380;11.028;2022-07-06T05:39:41;27.70;83.60
23435;DHT22;11890;45.380;11.028;2022-07-06T05:42:11;27.60;83.60
23435;DHT22;11890;45.380;11.028;2022-07-06T05:44:40;27.60;83.30
23435;DHT22;11890;45.380;11.028;2022-07-06T05:47:07;27.60;82.90
23435;DHT22;11890;45.380;11.028;2022-07-06T05:49:54;27.50;83.60
23435;DHT22;11890;45.380;11.028;2022-07-06T05:52:55;27.40;86.90
23435;DHT22;11890;45.380;11.028;2022-07-06T05:55:23;27.40;89.60
23435;DHT22;11890;45.380;11.028;2022-07-06T05:57:52;27.20;90.90
23435;DHT22;11890;45.380;11.028;2022-07-06T06:00:23;27.10;91.80
23435;DHT22;11890;45.380;11.028;2022-07-06T06:02:53;27.00;92.80
23435;DHT22;11890;45.380;11.028;2022-07-06T06:05:21;26.90;93.20
23435;DHT22;11890;45.380;11.028;2022-07-06T06:07:55;26.90;94.90
23435;DHT22;11890;45.380;11.028;2022-07-06T06:10:25;26.90;95.40
23435;DHT22;11890;45.380;11.028;2022-07-06T06:12:57;26.70;94.70
23435;DHT22;11890;45.380;11.028;2022-07-06T06:15:25;26.60;95.60
23435;DHT22;11890;45.380;11.028;2022-07-06T06:17:53;26.60;97.10
23435;DHT22;11890;45.380;11.028;2022-07-06T06:20:20;26.60;97.30
23435;DHT22;11890;45.380;11.028;2022-07-06T06:22:50;26.60;97.10
23435;DHT22;11890;45.380;11.028;2022-07-06T06:25:35;26.60;97.60
23435;DHT22;11890;45.380;11.028;2022-07-06T06:28:04;26.60;96.90
23435;DHT22;11890;45.380;11.028;2022-07-06T06:30:32;26.70;96.30
23435;DHT22;11890;45.380;11.028;2022-07-06T06:35:33;26.90;96.00
23435;DHT22;11890;45.380;11.028;2022-07-06T06:38:00;27.00;96.50
23435;DHT22;11890;45.380;11.028;2022-07-06T06:40:28;27.00;95.60
23435;DHT22;11890;45.380;11.028;2022-07-06T06:42:55;26.90;96.30
23435;DHT22;11890;45.380;11.028;2022-07-06T06:45:23;26.90;95.80
23435;DHT22;11890;45.380;11.028;2022-07-06T06:47:51;26.90;95.80
23435;DHT22;11890;45.380;11.028;2022-07-06T06:50:18;27.00;95.20
23435;DHT22;11890;45.380;11.028;2022-07-06T06:52:46;27.00;95.50
23435;DHT22;11890;45.380;11.028;2022-07-06T06:55:13;27.00;95.10
23435;DHT22;11890;45.380;11.028;2022-07-06T06:57:40;27.00;95.10
23435;DHT22;11890;45.380;11.028;2022-07-06T07:00:08;27.00;95.80
23435;DHT22;11890;45.380;11.028;2022-07-06T07:02:36;27.00;95.80
23435;DHT22;11890;45.380;11.028;2022-07-06T07:05:04;26.90;96.80
23435;DHT22;11890;45.380;11.028;2022-07-06T07:07:32;27.00;96.80
23435;DHT22;11890;45.380;11.028;2022-07-06T07:10:00;27.10;97.60
23435;DHT22;11890;45.380;11.028;2022-07-06T07:12:27;27.20;97.60
23435;DHT22;11890;45.380;11.028;2022-07-06T07:14:55;27.20;97.50
23435;DHT22;11890;45.380;11.028;2022-07-06T07:17:22;27.30;97.10
23435;DHT22;11890;45.380;11.028;2022-07-06T07:19:50;27.40;96.00
23435;DHT22;11890;45.380;11.028;2022-07-06T07:22:17;27.50;96.00
23435;DHT22;11890;45.380;11.028;2022-07-06T07:24:45;27.60;95.10
23435;DHT22;11890;45.380;11.028;2022-07-06T07:27:12;27.70;94.90
23435;DHT22;11890;45.380;11.028;2022-07-06T07:29:40;27.90;94.30
23435;DHT22;11890;45.380;11.028;2022-07-06T07:32:07;28.00;94.50
23435;DHT22;11890;45.380;11.028;2022-07-06T07:34:34;28.10;93.80
23435;DHT22;11890;45.380;11.028;2022-07-06T07:37:02;28.20;93.30
23435;DHT22;11890;45.380;11.028;2022-07-06T07:39:30;28.20;93.40
23435;DHT22;11890;45.380;11.028;2022-07-06T07:41:57;28.30;92.50
23435;DHT22;11890;45.380;11.028;2022-07-06T07:44:24;28.30;93.40
23435;DHT22;11890;45.380;11.028;2022-07-06T07:46:54;28.50;92.40
23435;DHT22;11890;45.380;11.028;2022-07-06T07:49:21;28.50;92.00
23435;DHT22;11890;45.380;11.028;2022-07-06T07:51:49;28.60;92.20
23435;DHT22;11890;45.380;11.028;2022-07-06T07:54:17;28.70;91.00
23435;DHT22;11890;45.380;11.028;2022-07-06T07:56:44;28.90;91.40
23435;DHT22;11890;45.380;11.028;2022-07-06T07:59:12;29.00;90.30
23435;DHT22;11890;45.380;11.028;2022-07-06T08:01:40;28.90;88.00
23435;DHT22;11890;45.380;11.028;2022-07-06T08:04:08;28.80;88.70
23435;DHT22;11890;45.380;11.028;2022-07-06T08:06:35;28.70;86.30
23435;DHT22;11890;45.380;11.028;2022-07-06T08:09:03;28.80;88.20
23435;DHT22;11890;45.380;11.028;2022-07-06T08:11:32;28.80;88.10
23435;DHT22;11890;45.380;11.028;2022-07-06T08:14:00;28.70;87.50
23435;DHT22;11890;45.380;11.028;2022-07-06T08:16:28;28.70;88.60
23435;DHT22;11890;45.380;11.028;2022-07-06T08:18:56;28.80;89.70
23435;DHT22;11890;45.380;11.028;2022-07-06T08:21:23;28.90;88.10
23435;DHT22;11890;45.380;11.028;2022-07-06T08:23:54;28.90;84.00
23435;DHT22;11890;45.380;11.028;2022-07-06T08:26:22;28.90;84.20
23435;DHT22;11890;45.380;11.028;2022-07-06T08:28:50;29.00;84.30
23435;DHT22;11890;45.380;11.028;2022-07-06T08:31:18;28.90;83.00
23435;DHT22;11890;45.380;11.028;2022-07-06T08:34:05;28.90;83.20
23435;DHT22;11890;45.380;11.028;2022-07-06T08:36:36;28.90;84.80
23435;DHT22;11890;45.380;11.028;2022-07-06T08:39:04;29.00;84.40
23435;DHT22;11890;45.380;11.028;2022-07-06T08:41:32;29.00;81.80
23435;DHT22;11890;45.380;11.028;2022-07-06T08:44:00;29.10;82.10
23435;DHT22;11890;45.380;11.028;2022-07-06T08:46:31;29.10;81.90
23435;DHT22;11890;45.380;11.028;2022-07-06T08:48:59;29.10;81.30
23435;DHT22;11890;45.380;11.028;2022-07-06T08:51:28;29.30;82.50
23435;DHT22;11890;45.380;11.028;2022-07-06T08:53:59;29.30;80.60
23435;DHT22;11890;45.380;11.028;2022-07-06T08:56:29;29.40;80.80
23435;DHT22;11890;45.380;11.028;2022-07-06T08:58:57;29.40;80.60
23435;DHT22;11890;45.380;11.028;2022-07-06T09:01:25;29.40;80.70
23435;DHT22;11890;45.380;11.028;2022-07-06T09:03:55;29.30;80.70
23435;DHT22;11890;45.380;11.028;2022-07-06T09:06:26;29.50;81.40
23435;DHT22;11890;45.380;11.028;2022-07-06T09:08:55;29.60;81.90
23435;DHT22;11890;45.380;11.028;2022-07-06T09:11:24;29.80;82.20
23435;DHT22;11890;45.380;11.028;2022-07-06T09:13:53;29.80;79.50
23435;DHT22;11890;45.380;11.028;2022-07-06T09:16:26;29.90;79.70
23435;DHT22;11890;45.380;11.028;2022-07-06T09:19:06;29.90;78.00
23435;DHT22;11890;45.380;11.028;2022-07-06T09:21:34;29.80;77.00
23435;DHT22;11890;45.380;11.028;2022-07-06T09:24:10;29.90;79.00
23435;DHT22;11890;45.380;11.028;2022-07-06T09:26:38;30.00;76.20
23435;DHT22;11890;45.380;11.028;2022-07-06T09:29:06;30.20;78.30
23435;DHT22;11890;45.380;11.028;2022-07-06T09:31:34;30.30;76.40
23435;DHT22;11890;45.380;11.028;2022-07-06T09:34:07;30.30;76.10
23435;DHT22;11890;45.380;11.028;2022-07-06T09:36:48;30.30;75.00
23435;DHT22;11890;45.380;11.028;2022-07-06T09:39:26;30.30;72.00
23435;DHT22;11890;45.380;11.028;2022-07-06T09:41:57;30.30;74.20
23435;DHT22;11890;45.380;11.028;2022-07-06T09:44:27;30.40;75.60
23435;DHT22;11890;45.380;11.028;2022-07-06T09:47:00;30.60;74.90
23435;DHT22;11890;45.380;11.028;2022-07-06T09:49:28;30.60;71.50
23435;DHT22;11890;45.380;11.028;2022-07-06T09:51:58;30.50;72.00
23435;DHT22;11890;45.380;11.028;2022-07-06T09:54:26;30.50;74.00
23435;DHT22;11890;45.380;11.028;2022-07-06T09:56:55;30.60;74.00
23435;DHT22;11890;45.380;11.028;2022-07-06T09:59:28;30.70;75.40
23435;DHT22;11890;45.380;11.028;2022-07-06T10:01:58;30.90;73.90
23435;DHT22;11890;45.380;11.028;2022-07-06T10:04:27;31.00;70.50
23435;DHT22;11890;45.380;11.028;2022-07-06T10:06:56;31.00;71.20
23435;DHT22;11890;45.380;11.028;2022-07-06T10:09:27;30.90;72.00
23435;DHT22;11890;45.380;11.028;2022-07-06T10:11:59;30.90;72.30
23435;DHT22;11890;45.380;11.028;2022-07-06T10:14:33;31.00;72.90
23435;DHT22;11890;45.380;11.028;2022-07-06T10:17:03;31.10;73.50
23435;DHT22;11890;45.380;11.028;2022-07-06T10:19:33;31.20;74.40
23435;DHT22;11890;45.380;11.028;2022-07-06T10:22:02;31.20;73.60
23435;DHT22;11890;45.380;11.028;2022-07-06T10:24:30;31.20;72.50
23435;DHT22;11890;45.380;11.028;2022-07-06T10:26:58;31.30;70.70
23435;DHT22;11890;45.380;11.028;2022-07-06T10:29:26;31.30;69.20
23435;DHT22;11890;45.380;11.028;2022-07-06T10:31:54;31.20;69.80
23435;DHT22;11890;45.380;11.028;2022-07-06T10:34:22;31.20;69.50
23435;DHT22;11890;45.380;11.028;2022-07-06T10:36:53;31.20;72.40
23435;DHT22;11890;45.380;11.028;2022-07-06T10:39:36;31.30;71.70
23435;DHT22;11890;45.380;11.028;2022-07-06T10:42:48;31.50;73.00
23435;DHT22;11890;45.380;11.028;2022-07-06T10:48:16;31.80;72.20
23435;DHT22;11890;45.380;11.028;2022-07-06T10:50:54;31.90;70.60
23435;DHT22;11890;45.380;11.028;2022-07-06T10:53:25;31.90;69.40
23435;DHT22;11890;45.380;11.028;2022-07-06T10:55:55;31.90;68.50
23435;DHT22;11890;45.380;11.028;2022-07-06T10:58:49;32.00;68.90
23435;DHT22;11890;45.380;11.028;2022-07-06T11:01:20;32.00;67.90
23435;DHT22;11890;45.380;11.028;2022-07-06T11:03:49;32.00;68.00
23435;DHT22;11890;45.380;11.028;2022-07-06T11:06:20;32.00;67.20
23435;DHT22;11890;45.380;11.028;2022-07-06T11:14:35;31.90;67.80
23435;DHT22;11890;45.380;11.028;2022-07-06T11:17:02;32.00;68.30
23435;DHT22;11890;45.380;11.028;2022-07-06T11:19:31;32.10;67.50
23435;DHT22;11890;45.380;11.028;2022-07-06T11:22:07;32.20;65.60
23435;DHT22;11890;45.380;11.028;2022-07-06T11:24:37;32.20;65.90
23435;DHT22;11890;45.380;11.028;2022-07-06T11:27:05;32.20;66.30
23435;DHT22;11890;45.380;11.028;2022-07-06T11:29:34;32.20;66.30
23435;DHT22;11890;45.380;11.028;2022-07-06T11:32:05;32.30;65.40
23435;DHT22;11890;45.380;11.028;2022-07-06T11:34:39;32.30;65.60
23435;DHT22;11890;45.380;11.028;2022-07-06T11:37:10;32.40;66.30
23435;DHT22;11890;45.380;11.028;2022-07-06T11:39:39;32.40;65.40
23435;DHT22;11890;45.380;11.028;2022-07-06T11:42:09;32.50;64.70
23435;DHT22;11890;45.380;11.028;2022-07-06T11:44:38;32.50;64.00
23435;DHT22;11890;45.380;11.028;2022-07-06T11:47:07;32.50;64.00
23435;DHT22;11890;45.380;11.028;2022-07-06T11:49:36;32.60;65.60
23435;DHT22;11890;45.380;11.028;2022-07-06T11:52:11;32.70;65.60
23435;DHT22;11890;45.380;11.028;2022-07-06T11:54:39;32.80;66.20
23435;DHT22;11890;45.380;11.028;2022-07-06T11:57:08;32.90;65.50
23435;DHT22;11890;45.380;11.028;2022-07-06T11:59:38;32.90;66.90
23435;DHT22;11890;45.380;11.028;2022-07-06T12:02:10;32.90;66.70
23435;DHT22;11890;45.380;11.028;2022-07-06T12:04:42;33.00;65.80
23435;DHT22;11890;45.380;11.028;2022-07-06T12:07:12;32.90;64.20
23435;DHT22;11890;45.380;11.028;2022-07-06T12:09:43;32.90;63.00
23435;DHT22;11890;45.380;11.028;2022-07-06T12:12:11;33.00;63.90
23435;DHT22;11890;45.380;11.028;2022-07-06T12:14:40;33.10;64.20
23435;DHT22;11890;45.380;11.028;2022-07-06T12:17:09;33.10;64.40
23435;DHT22;11890;45.380;11.028;2022-07-06T12:19:38;33.00;64.60
23435;DHT22;11890;45.380;11.028;2022-07-06T12:22:07;32.90;63.60
23435;DHT22;11890;45.380;11.028;2022-07-06T12:24:36;33.00;65.00
23435;DHT22;11890;45.380;11.028;2022-07-06T12:27:18;33.00;64.90
23435;DHT22;11890;45.380;11.028;2022-07-06T12:29:47;33.10;64.80
23435;DHT22;11890;45.380;11.028;2022-07-06T12:34:43;32.90;64.00
23435;DHT22;11890;45.380;11.028;2022-07-06T12:37:12;32.90;64.70
23435;DHT22;11890;45.380;11.028;2022-07-06T12:39:44;32.90;62.90
23435;DHT22;11890;45.380;11.028;2022-07-06T12:42:16;32.80;62.80
23435;DHT22;11890;45.380;11.028;2022-07-06T12:44:52;32.70;63.10
23435;DHT22;11890;45.380;11.028;2022-07-06T12:47:20;32.80;63.00
23435;DHT22;11890;45.380;11.028;2022-07-06T12:50:07;32.80;62.40
23435;DHT22;11890;45.380;11.028;2022-07-06T12:52:34;32.90;62.40
23435;DHT22;11890;45.380;11.028;2022-07-06T12:55:05;33.00;62.40
23435;DHT22;11890;45.380;11.028;2022-07-06T12:57:48;33.00;63.30
23435;DHT22;11890;45.380;11.028;2022-07-06T13:00:17;33.20;62.30
23435;DHT22;11890;45.380;11.028;2022-07-06T13:02:47;33.20;63.70
23435;DHT22;11890;45.380;11.028;2022-07-06T13:05:35;33.20;61.10
23435;DHT22;11890;45.380;11.028;2022-07-06T13:08:03;33.20;61.60
23435;DHT22;11890;45.380;11.028;2022-07-06T13:10:31;33.10;62.40
23435;DHT22;11890;45.380;11.028;2022-07-06T13:12:58;33.00;62.90
23435;DHT22;11890;45.380;11.028;2022-07-06T13:15:26;32.90;63.00
23435;DHT22;11890;45.380;11.028;2022-07-06T13:17:53;32.90;62.70
23435;DHT22;11890;45.380;11.028;2022-07-06T13:20:20;32.80;63.10
23435;DHT22;11890;45.380;11.028;2022-07-06T13:22:48;32.80;63.00
23435;DHT22;11890;45.380;11.028;2022-07-06T13:25:15;32.90;62.90
23435;DHT22;11890;45.380;11.028;2022-07-06T13:27:43;32.80;62.00
23435;DHT22;11890;45.380;11.028;2022-07-06T13:30:11;32.80;62.20
23435;DHT22;11890;45.380;11.028;2022-07-06T13:32:39;32.80;62.00
23435;DHT22;11890;45.380;11.028;2022-07-06T13:35:07;32.80;62.70
23435;DHT22;11890;45.380;11.028;2022-07-06T13:37:34;32.80;62.70
23435;DHT22;11890;45.380;11.028;2022-07-06T13:40:02;32.90;62.40
23435;DHT22;11890;45.380;11.028;2022-07-06T13:42:30;32.90;61.80
23435;DHT22;11890;45.380;11.028;2022-07-06T13:44:57;33.00;62.30
23435;DHT22;11890;45.380;11.028;2022-07-06T13:47:24;33.00;60.90
23435;DHT22;11890;45.380;11.028;2022-07-06T13:49:52;33.00;60.40
23435;DHT22;11890;45.380;11.028;2022-07-06T13:52:19;33.10;59.70
23435;DHT22;11890;45.380;11.028;2022-07-06T13:54:47;33.10;59.40
23435;DHT22;11890;45.380;11.028;2022-07-06T13:57:14;33.10;59.50
23435;DHT22;11890;45.380;11.028;2022-07-06T13:59:41;33.20;61.10
23435;DHT22;11890;45.380;11.028;2022-07-06T14:02:10;33.10;61.60
23435;DHT22;11890;45.380;11.028;2022-07-06T14:04:38;33.00;62.30
23435;DHT22;11890;45.380;11.028;2022-07-06T14:07:06;33.00;61.30
23435;DHT22;11890;45.380;11.028;2022-07-06T14:09:34;33.00;62.20
23435;DHT22;11890;45.380;11.028;2022-07-06T14:12:01;33.00;63.10
23435;DHT22;11890;45.380;11.028;2022-07-06T14:14:29;33.00;62.60
23435;DHT22;11890;45.380;11.028;2022-07-06T14:16:56;33.00;63.30
23435;DHT22;11890;45.380;11.028;2022-07-06T14:19:25;33.00;62.50
23435;DHT22;11890;45.380;11.028;2022-07-06T14:21:53;33.00;62.70
23435;DHT22;11890;45.380;11.028;2022-07-06T14:24:20;32.90;63.60
23435;DHT22;11890;45.380;11.028;2022-07-06T14:26:48;33.00;63.40
23435;DHT22;11890;45.380;11.028;2022-07-06T14:29:15;33.00;63.00
23435;DHT22;11890;45.380;11.028;2022-07-06T14:31:43;33.00;63.30
23435;DHT22;11890;45.380;11.028;2022-07-06T14:34:10;33.00;62.00
23435;DHT22;11890;45.380;11.028;2022-07-06T14:36:37;33.00;62.30
23435;DHT22;11890;45.380;11.028;2022-07-06T14:39:06;33.00;62.50
23435;DHT22;11890;45.380;11.028;2022-07-06T14:41:33;33.00;62.70
23435;DHT22;11890;45.380;11.028;2022-07-06T14:44:02;33.10;61.40
23435;DHT22;11890;45.380;11.028;2022-07-06T14:46:30;33.10;62.20
23435;DHT22;11890;45.380;11.028;2022-07-06T14:48:58;33.00;62.10
23435;DHT22;11890;45.380;11.028;2022-07-06T14:51:26;33.00;62.40
23435;DHT22;11890;45.380;11.028;2022-07-06T14:53:53;33.00;60.90
23435;DHT22;11890;45.380;11.028;2022-07-06T14:56:20;33.00;61.30
23435;DHT22;11890;45.380;11.028;2022-07-06T14:58:48;32.90;59.60
23435;DHT22;11890;45.380;11.028;2022-07-06T15:01:35;33.00;59.40
23435;DHT22;11890;45.380;11.028;2022-07-06T15:04:03;33.00;58.80
23435;DHT22;11890;45.380;11.028;2022-07-06T15:06:30;32.90;59.70
23435;DHT22;11890;45.380;11.028;2022-07-06T15:09:18;32.90;59.30
23435;DHT22;11890;45.380;11.028;2022-07-06T15:11:45;32.90;60.50
23435;DHT22;11890;45.380;11.028;2022-07-06T15:14:13;32.80;60.10
23435;DHT22;11890;45.380;11.028;2022-07-06T15:16:43;32.80;61.10
23435;DHT22;11890;45.380;11.028;2022-07-06T15:19:11;32.80;60.70
23435;DHT22;11890;45.380;11.028;2022-07-06T15:21:38;32.70;62.30
23435;DHT22;11890;45.380;11.028;2022-07-06T15:24:06;32.60;62.20
23435;DHT22;11890;45.380;11.028;2022-07-06T15:26:33;32.50;63.20
23435;DHT22;11890;45.380;11.028;2022-07-06T15:29:01;32.50;63.80
23435;DHT22;11890;45.380;11.028;2022-07-06T15:31:28;32.50;64.00
23435;DHT22;11890;45.380;11.028;2022-07-06T15:33:56;32.50;64.00
23435;DHT22;11890;45.380;11.028;2022-07-06T15:36:23;32.50;64.60
23435;DHT22;11890;45.380;11.028;2022-07-06T15:38:51;32.50;64.40
23435;DHT22;11890;45.380;11.028;2022-07-06T15:41:19;32.50;64.50
23435;DHT22;11890;45.380;11.028;2022-07-06T15:43:46;32.50;64.20